Terminal Aerodrome Forecast
Issued by NWS Huntsville, AL

Home | Current Version | Previous Version | Text Only | Print | Product List | Glossary On
Versions: 1 2 3 4 5 6 7 8 9 10 11 12 13 14 15 16 17 18 19 20 21 22 23 24
000
FTUS44 KHUN 242326
TAFMSL
TAF
KMSL 242326Z 2500/2524 15007KT P6SM VCSH OVC050
     FM250300 15009KT 4SM SHRA VCTS OVC025CB
     FM251100 18014KT 6SM -TSRA BKN015CB
      TEMPO 2511/2515 VRB10G25KT
     FM251500 24015G22KT 6SM BR BKN025 PROB30 2515/2519 -TSRA
      BKN025CB=

USA.gov is the U.S. government's official web portal to all federal, state and local government web resources and services.